Aérodrome :
LOGIN :

S'inscrire | Disclaimer

   EN    FR    IT 

 










Légende :    VFR   VFR Marginal   IFR   IFR Intensif   IFR Très Intensif
Visi : 
Plafond : 
>= 8 km
>= 3000ft
5 à 8 km
1000 à 3000 ft
1500m à 5 km
500 à 1000 ft
800 à 1500m
200 à 500 ft
< 800m
< 200 ft
Symboles :   Orages  Brouillard  Fortes neiges  Fortes précipitations  Vent > 20 kt
SIGMETs :   Divers  Orages  Givrage  Turbulence  Onde Orograph.  Cendres Volcan.







- Altitude de l'aérodrome : 13 ft
- Code IATA : GOA


LIMJ - Genoa Cristoforo Colombo

DERNIER METAR :
  • 250920Z VRB03KT 9999 SCT060 26/14 Q1015

METARs EXPIRÉS :
  • 250850Z 27005KT 9999 SCT060 25/15 Q1014
  • 250820Z 06008KT 030V090 9999 SCT060 24/14 Q1014
  • 250750Z 05006KT 010V080 9999 SCT060 24/14 Q1014
  • 250720Z 03006KT 350V090 9999 SCT060 25/14 Q1014
  • 250650Z 04007KT 010V090 9999 SCT060 24/14 Q1014

TAF TAF LIMJ
Valide du 25 à 06h jusqu'au 26 à 06h UTC


250500Z 2506/2606 03006KT 9999 SCT050
TEMPO 2506/2511 SHRA
Pas de NOTAMs connus pour ce terrain.
3 SIGMETs publiés pour la FIR Milano (LIMM) :
 
Orages noyés dans la masse
LIMM SIGMET 6 VALID 250940/251140 LIIP
LIMM MILANO FIR EMBD TS OBS WI N4442 E01251 - N4412 E01130 - N4343 E01213 - N4334 E01402 - N4442 E01251 TOP FL320 MOV SSE WKN=
Turbulence forte
LIMM SIGMET 5 VALID 250900/251300 LIIP
LIMM MILANO FIR SEV TURB FCST E OF LINE N4618 E00851 - N4324 E00830 FL250/330 MOV E NC=
Turbulence forte
LIMM SIGMET 3 VALID 250500/250900 LIIP
LIMM MILANO FIR SEV TURB FCST E OF LINE N4618 E00851 - N4333 E00741 FL250/330 MOV E NC=



MET'MAP, la Météo Aéronautique d'un coup d'oeil ! - Copyright ORBIFLY Décembre 2007 - Disclaimer

ORBIFLY MET'MAP TEAM :

Programmation & Développement : Alexandra Zaïnal
Conception & Développement : Baudouin d'Aumeries
Co-Programmation & Développement : Marc-Olivier Méhu
Soutien technique & logistique : Manuel Goepfert

Contact : metmap@orbifly.com




SOURCES & CREDITS :

   NOAA